Adams, Oregon
Current Conditions -  °F | °C
As of 5:53 PM on Saturday 25 Oct 2014 (Local Time) from KPDT Reporting Station
Light Rain Light Rain  
Wind Chill: 65°   Ceiling: 9000
Heat Index: 65°   Visibility: 8mi
Dew Point: 44°   Wind: 22mph
Humidity: 47%   Direction: 230°SW
Pressure: 29.54"   Gusts: 37mph
Location:  45.77°N, 118.56°W
Report Text: KPDT 260053Z 23019G32KT 8SM -RA SCT075 OVC090 18/07 A2954 RMK AO2 PK WND 22044/0040 RAB39 PRESRR SLP995 P0000 T01830067
Loading
Personal Weather Stations






























Interactive Weather Map
Tropical Storm Tracking
New forecast layout! Learn more

10-Day Weather Forecast

Advertisements
Track Severe Weather on mobile